Time;durP1;ratioP1;P1;durP2;ratioP2;P2;SDS_P1;SDS_P2;PMS_P1;PMS_P2;Temp;Humidity;BMP_temperature;BMP_pressure;BME280_temperature;BME280_humidity;BME280_pressure;Samples;Min_cycle;Max_cycle;Signal;HPM_P1;HPM_P2
2022/04/07 00:00:19;;;;;;;0.80;0.60;;;;;;;21.12;41.23;98469.44;5131161;28;20055;-65
2022/04/07 00:02:45;;;;;;;0.60;0.43;;;;;;;21.13;40.92;98471.81;5110747;28;20412;-65
2022/04/07 00:05:11;;;;;;;0.40;0.40;;;;;;;21.13;41.23;98473.78;5110598;28;20036;-64
2022/04/07 00:07:37;;;;;;;0.70;0.50;;;;;;;21.12;41.16;98477.78;5110514;28;20035;-64
2022/04/07 00:10:03;;;;;;;0.80;0.60;;;;;;;21.13;41.39;98477.38;5110562;28;20046;-65
2022/04/07 00:12:37;;;;;;;0.38;0.38;;;;;;;21.13;41.14;98484.91;5110695;28;20075;-65
2022/04/07 00:15:02;;;;;;;0.68;0.50;;;;;;;21.14;41.33;98484.50;5110245;28;20056;-64
2022/04/07 00:17:28;;;;;;;0.68;0.57;;;;;;;21.17;41.45;98496.84;5110028;28;20035;-64
2022/04/07 00:19:54;;;;;;;0.60;0.50;;;;;;;21.17;41.46;98499.63;5110147;28;20053;-65
2022/04/07 00:22:20;;;;;;;1.13;0.55;;;;;;;21.15;41.52;98513.13;5110388;28;20036;-65
2022/04/07 00:24:45;;;;;;;0.50;0.45;;;;;;;21.19;41.38;98518.69;5109995;28;20113;-65
2022/04/07 00:27:11;;;;;;;1.00;0.50;;;;;;;21.19;41.49;98504.78;5109858;28;20039;-64
2022/04/07 00:29:36;;;;;;;0.73;0.45;;;;;;;21.19;41.40;98502.78;5110239;28;20504;-65
2022/04/07 00:32:05;;;;;;;0.70;0.40;;;;;;;21.19;41.48;98502.78;5110363;28;20112;-64
2022/04/07 00:34:31;;;;;;;0.75;0.40;;;;;;;21.22;41.48;98506.75;5109639;28;20051;-65
2022/04/07 00:36:57;;;;;;;0.60;0.47;;;;;;;21.21;41.44;98500.41;5110101;28;20110;-65
2022/04/07 00:39:22;;;;;;;0.47;0.32;;;;;;;21.24;41.50;98512.72;5110068;28;20071;-65
2022/04/07 00:41:48;;;;;;;0.75;0.50;;;;;;;21.66;40.86;98507.09;5110002;28;20097;-65
2022/04/07 00:44:14;;;;;;;0.40;0.40;;;;;;;22.61;38.96;98500.66;5110115;28;20044;-64
2022/04/07 00:46:41;;;;;;;0.50;0.40;;;;;;;23.41;37.48;98492.03;5109969;28;20080;-59
2022/04/07 00:49:07;;;;;;;0.75;0.45;;;;;;;23.09;37.94;98495.13;5109998;28;20101;-58
2022/04/07 00:51:35;;;;;;;0.50;0.30;;;;;;;22.77;38.72;98509.31;5109898;28;20044;-59
2022/04/07 00:54:00;;;;;;;0.38;0.30;;;;;;;22.49;38.85;98508.31;5109924;28;20096;-59
2022/04/07 00:56:26;;;;;;;0.30;0.30;;;;;;;22.24;39.57;98502.91;5109774;28;20055;-59
2022/04/07 00:58:53;;;;;;;0.50;0.40;;;;;;;22.06;40.04;98509.72;5109748;28;20067;-58
2022/04/07 01:01:22;;;;;;;0.45;0.30;;;;;;;21.92;40.01;98519.72;5109760;28;20100;-58
2022/04/07 01:03:49;;;;;;;0.45;0.30;;;;;;;21.82;40.56;98517.78;5109636;28;20043;-58
2022/04/07 01:06:14;;;;;;;0.75;0.47;;;;;;;21.74;40.36;98515.44;5109774;28;20054;-64
2022/04/07 01:08:40;;;;;;;0.47;0.47;;;;;;;21.66;40.80;98520.22;5109566;28;20052;-64
2022/04/07 01:11:05;;;;;;;0.65;0.50;;;;;;;21.65;40.73;98535.34;5109666;28;20044;-64
2022/04/07 01:13:50;;;;;;;0.57;0.40;;;;;;;21.58;40.85;98521.44;5109720;28;20040;-59
2022/04/07 01:16:17;;;;;;;0.38;0.38;;;;;;;21.56;41.13;98529.38;5109669;28;20051;-59
2022/04/07 01:18:46;;;;;;;0.43;0.40;;;;;;;21.53;41.31;98521.84;5109671;28;20491;-59
2022/04/07 01:21:17;;;;;;;0.55;0.40;;;;;;;21.51;41.10;98515.91;5109559;28;20510;-59
2022/04/07 01:24:12;;;;;;;0.52;0.40;;;;;;;21.48;41.08;98525.03;5109514;28;20424;-59
2022/04/07 01:26:39;;;;;;;0.55;0.50;;;;;;;21.42;41.04;98521.84;5096145;28;20048;-59
2022/04/07 01:29:06;;;;;;;0.40;0.38;;;;;;;21.44;41.30;98530.59;5111935;28;20040;-59
2022/04/07 01:31:32;;;;;;;0.63;0.35;;;;;;;21.43;41.40;98535.38;5112872;28;20040;-59
2022/04/07 01:33:58;;;;;;;0.73;0.45;;;;;;;21.42;41.38;98524.63;5115334;28;20063;-58
2022/04/07 01:36:29;;;;;;;0.28;0.28;;;;;;;21.40;41.61;98530.59;5121801;28;20085;-59
2022/04/07 01:38:56;;;;;;;0.40;0.32;;;;;;;21.37;41.42;98534.19;5113269;27;20503;-59
2022/04/07 01:41:23;;;;;;;0.43;0.40;;;;;;;21.37;41.40;98528.63;5121695;28;20499;-58
2022/04/07 01:43:50;;;;;;;0.30;0.30;;;;;;;21.36;41.34;98524.28;5112799;28;20039;-59
2022/04/07 01:46:17;;;;;;;0.47;0.40;;;;;;;21.37;41.34;98527.84;5112609;28;20123;-58
2022/04/07 01:48:44;;;;;;;0.30;0.30;;;;;;;21.36;41.52;98524.28;5112746;28;20071;-58
2022/04/07 01:51:11;;;;;;;0.43;0.40;;;;;;;21.36;41.40;98518.72;5112659;28;20519;-58
2022/04/07 01:53:37;;;;;;;0.28;0.28;;;;;;;21.36;41.67;98520.66;5112910;28;20461;-58
2022/04/07 01:56:04;;;;;;;0.70;0.40;;;;;;;21.36;41.25;98538.19;5112512;28;20423;-59
2022/04/07 01:58:30;;;;;;;0.40;0.30;;;;;;;21.34;41.60;98534.97;5112558;28;20511;-59
2022/04/07 02:00:56;;;;;;;0.68;0.50;;;;;;;21.34;41.65;98543.31;5112656;28;20074;-59
2022/04/07 02:03:21;;;;;;;0.43;0.30;;;;;;;21.33;41.58;98536.19;5112600;28;20079;-58
2022/04/07 02:05:47;;;;;;;0.40;0.32;;;;;;;21.34;41.50;98534.19;5112410;28;20878;-59
2022/04/07 02:08:12;;;;;;;0.43;0.40;;;;;;;21.34;41.88;98532.19;5112458;28;20036;-59
2022/04/07 02:10:37;;;;;;;0.50;0.40;;;;;;;21.35;41.50;98539.34;5112492;28;20043;-58
2022/04/07 02:13:03;;;;;;;0.30;0.30;;;;;;;21.34;41.87;98540.53;5112380;28;20078;-59
2022/04/07 02:15:28;;;;;;;0.47;0.47;;;;;;;21.34;41.56;98540.53;5112187;28;20039;-59
2022/04/07 02:17:54;;;;;;;0.38;0.32;;;;;;;21.33;41.66;98536.19;5112329;28;20071;-59
2022/04/07 02:20:20;;;;;;;0.60;0.45;;;;;;;21.34;41.78;98540.53;5112258;28;20078;-59
2022/04/07 02:22:46;;;;;;;0.50;0.50;;;;;;;21.33;41.81;98536.19;5112201;28;20040;-58
2022/04/07 02:25:11;;;;;;;0.40;0.30;;;;;;;21.34;41.50;98534.19;5112161;28;20044;-59
2022/04/07 02:27:39;;;;;;;0.30;0.30;;;;;;;21.34;41.58;98539.75;5112360;28;20050;-58
2022/04/07 02:30:10;;;;;;;0.45;0.35;;;;;;;21.33;41.73;98541.75;5112233;28;20036;-58
2022/04/07 02:32:35;;;;;;;0.40;0.30;;;;;;;21.34;41.82;98536.97;5112063;28;20145;-59
2022/04/07 02:35:01;;;;;;;0.63;0.40;;;;;;;21.34;41.43;98528.63;5111886;28;20053;-59
2022/04/07 02:37:27;;;;;;;0.45;0.35;;;;;;;21.34;41.47;98536.97;5112181;28;20540;-58
2022/04/07 02:39:53;;;;;;;0.30;0.30;;;;;;;21.33;41.66;98529.81;5110753;28;20399;-59
2022/04/07 02:42:19;;;;;;;0.75;0.50;;;;;;;21.32;41.73;98531.81;5112005;28;20040;-58
2022/04/07 02:44:44;;;;;;;0.75;0.47;;;;;;;21.32;41.89;98531.81;5111921;28;20057;-59
2022/04/07 02:47:10;;;;;;;0.28;0.28;;;;;;;21.34;41.80;98529.41;5111869;28;20043;-59
2022/04/07 02:49:35;;;;;;;0.30;0.30;;;;;;;21.33;41.97;98518.69;5111880;28;20048;-58
2022/04/07 02:52:00;;;;;;;0.40;0.40;;;;;;;21.32;41.57;98517.91;5111720;28;20040;-58
2022/04/07 02:54:26;;;;;;;0.43;0.40;;;;;;;21.32;41.61;98517.13;5111668;28;20584;-64
2022/04/07 02:56:51;;;;;;;0.40;0.30;;;;;;;21.33;41.72;98513.13;5111479;28;20059;-64
2022/04/07 02:59:17;;;;;;;0.47;0.40;;;;;;;21.34;41.82;98512.72;5111758;28;20468;-64
2022/04/07 03:01:43;;;;;;;0.50;0.40;;;;;;;21.32;41.89;98517.13;5111750;28;20035;-64
2022/04/07 03:04:09;;;;;;;0.50;0.40;;;;;;;21.30;41.76;98519.50;5111565;28;20050;-64
2022/04/07 03:06:35;;;;;;;0.63;0.50;;;;;;;21.30;42.01;98522.28;5111635;28;20043;-64
2022/04/07 03:09:00;;;;;;;0.57;0.45;;;;;;;21.32;41.63;98525.47;5111518;28;20043;-65
2022/04/07 03:11:25;;;;;;;0.45;0.38;;;;;;;21.30;41.76;98525.88;5095223;28;20040;-58
2022/04/07 03:13:51;;;;;;;0.43;0.38;;;;;;;21.30;41.73;98527.84;5111536;28;20491;-58
2022/04/07 03:16:16;;;;;;;0.40;0.40;;;;;;;21.29;41.93;98524.28;5111319;28;20035;-65
2022/04/07 03:18:41;;;;;;;0.57;0.43;;;;;;;21.29;42.10;98521.50;5111288;28;20048;-64
2022/04/07 03:21:07;;;;;;;0.32;0.30;;;;;;;21.27;41.67;98518.28;5111296;28;20032;-65
2022/04/07 03:23:32;;;;;;;0.60;0.40;;;;;;;21.30;42.10;98525.88;5111140;28;20083;-64
2022/04/07 03:26:00;;;;;;;0.40;0.40;;;;;;;21.28;41.76;98522.66;5111005;28;20190;-65
2022/04/07 03:28:25;;;;;;;0.60;0.50;;;;;;;21.30;41.79;98525.06;5111364;28;20130;-65
2022/04/07 03:30:50;;;;;;;0.70;0.40;;;;;;;21.27;41.86;98526.63;5111174;28;20139;-64
2022/04/07 03:33:16;;;;;;;0.30;0.25;;;;;;;21.25;42.15;98515.09;5111103;28;20044;-64
2022/04/07 03:35:42;;;;;;;0.40;0.35;;;;;;;21.26;41.88;98518.69;5111069;28;20120;-64
2022/04/07 03:38:08;;;;;;;0.60;0.40;;;;;;;21.24;41.78;98521.88;5111211;28;20048;-65
2022/04/07 03:40:35;;;;;;;0.57;0.47;;;;;;;21.24;41.89;98510.75;5110959;28;20074;-65
2022/04/07 03:43:01;;;;;;;0.98;0.60;;;;;;;21.26;41.88;98516.69;5110805;28;20128;-64
2022/04/07 03:45:27;;;;;;;0.63;0.40;;;;;;;21.27;42.00;98509.94;5110836;28;20040;-65
2022/04/07 03:47:52;;;;;;;0.68;0.50;;;;;;;21.27;42.17;98512.72;5110990;28;20094;-65
2022/04/07 03:50:17;;;;;;;0.68;0.43;;;;;;;21.25;42.03;98517.09;5110541;28;20122;-65
2022/04/07 03:52:43;;;;;;;0.40;0.40;;;;;;;21.25;41.89;98506.75;5110664;28;20056;-65
2022/04/07 03:55:09;;;;;;;0.40;0.40;;;;;;;21.25;42.28;98515.09;5110674;28;20554;-65
2022/04/07 03:57:35;;;;;;;0.32;0.32;;;;;;;21.24;42.13;98512.72;5110873;28;20047;-64
2022/04/07 04:00:00;;;;;;;0.90;0.52;;;;;;;21.24;42.10;98521.88;5110651;28;20042;-64
2022/04/07 04:02:26;;;;;;;0.77;0.40;;;;;;;21.25;42.16;98523.44;5110481;28;20043;-65
2022/04/07 04:04:51;;;;;;;0.43;0.40;;;;;;;21.25;41.86;98523.44;5110669;28;20048;-64
2022/04/07 04:07:16;;;;;;;0.65;0.43;;;;;;;21.24;42.06;98510.75;5110547;28;20054;-65
2022/04/07 04:09:42;;;;;;;0.73;0.40;;;;;;;21.24;42.02;98505.19;5110430;28;20047;-65
2022/04/07 04:12:08;;;;;;;0.32;0.30;;;;;;;21.22;42.18;98515.91;5110733;28;20377;-65
2022/04/07 04:14:33;;;;;;;0.75;0.43;;;;;;;21.24;42.26;98504.38;5110360;28;20072;-64
2022/04/07 04:16:59;;;;;;;0.20;0.20;;;;;;;21.23;42.08;98503.59;5110309;28;20087;-65
2022/04/07 04:19:25;;;;;;;0.50;0.40;;;;;;;21.24;42.17;98504.38;5110515;28;20456;-65
2022/04/07 04:21:51;;;;;;;0.45;0.40;;;;;;;21.23;41.98;98503.59;5110521;28;20040;-65
2022/04/07 04:24:16;;;;;;;0.60;0.43;;;;;;;21.23;41.96;98511.94;5110430;28;20058;-65
2022/04/07 04:26:42;;;;;;;0.30;0.30;;;;;;;21.23;42.07;98502.81;5110504;28;20044;-65
2022/04/07 04:29:07;;;;;;;0.40;0.30;;;;;;;21.22;42.09;98509.53;5094305;28;20067;-59
2022/04/07 04:31:32;;;;;;;0.35;0.30;;;;;;;21.23;42.16;98511.94;5110289;28;20534;-59
2022/04/07 04:33:59;;;;;;;0.65;0.50;;;;;;;21.22;41.89;98504.78;5110468;28;20507;-59
2022/04/07 04:36:25;;;;;;;0.38;0.38;;;;;;;21.21;42.21;98505.97;5110305;28;20048;-59
2022/04/07 04:38:50;;;;;;;0.30;0.30;;;;;;;21.21;42.33;98503.19;5110300;28;20058;-58
2022/04/07 04:41:16;;;;;;;0.60;0.40;;;;;;;21.22;42.12;98498.41;5110055;28;20031;-59
2022/04/07 04:43:41;;;;;;;0.43;0.43;;;;;;;21.22;41.97;98496.44;5110161;28;20047;-59
2022/04/07 04:46:07;;;;;;;0.55;0.38;;;;;;;21.23;42.10;98503.59;5110112;28;20062;-59
2022/04/07 04:48:38;;;;;;;0.73;0.43;;;;;;;21.20;41.99;98503.59;5110133;28;20047;-59
2022/04/07 04:51:04;;;;;;;0.40;0.40;;;;;;;21.20;42.02;98509.94;5110017;28;20062;-59
2022/04/07 04:53:29;;;;;;;0.50;0.50;;;;;;;21.19;42.38;98511.13;5110018;28;20122;-58
2022/04/07 04:55:55;;;;;;;0.30;0.30;;;;;;;21.19;42.43;98505.56;5109682;28;20048;-59
2022/04/07 04:58:20;;;;;;;0.40;0.40;;;;;;;21.21;42.15;98514.31;5109920;28;20715;-59
2022/04/07 05:00:49;;;;;;;0.40;0.38;;;;;;;21.20;42.15;98509.16;5109808;28;20088;-65
2022/04/07 05:03:14;;;;;;;0.50;0.50;;;;;;;21.22;42.06;98517.88;5111139;28;20126;-64
2022/04/07 05:05:40;;;;;;;0.75;0.50;;;;;;;21.22;42.32;98523.44;5113495;28;20436;-64
2022/04/07 05:08:06;;;;;;;0.65;0.47;;;;;;;21.23;42.05;98517.50;5113557;28;20040;-64
2022/04/07 05:10:32;;;;;;;0.73;0.40;;;;;;;21.22;42.17;98509.53;5113481;28;20040;-64
2022/04/07 05:12:58;;;;;;;0.40;0.40;;;;;;;21.24;42.13;98512.72;5113243;28;20040;-65
2022/04/07 05:15:24;;;;;;;0.63;0.47;;;;;;;21.25;42.05;98519.88;5113294;28;20126;-65
2022/04/07 05:17:51;;;;;;;0.60;0.50;;;;;;;21.23;42.21;98511.94;5113260;28;20130;-65
2022/04/07 05:20:16;;;;;;;0.75;0.47;;;;;;;21.27;42.22;98523.03;5113269;28;20055;-64
2022/04/07 05:22:42;;;;;;;0.50;0.40;;;;;;;21.25;42.05;98517.88;5113213;28;20051;-64
2022/04/07 05:25:08;;;;;;;0.50;0.40;;;;;;;21.28;42.11;98519.88;5113119;28;20042;-64
2022/04/07 05:27:36;;;;;;;0.70;0.30;;;;;;;21.27;42.23;98512.72;5113119;28;20122;-65
2022/04/07 05:30:04;;;;;;;0.60;0.52;;;;;;;21.28;42.10;98511.53;5113103;28;20078;-65
2022/04/07 05:32:30;;;;;;;0.50;0.47;;;;;;;21.29;42.24;98520.69;5112974;28;20456;-64
2022/04/07 05:34:55;;;;;;;0.40;0.40;;;;;;;21.28;42.02;98516.31;5112739;28;20484;-64
2022/04/07 05:37:21;;;;;;;0.57;0.50;;;;;;;21.27;41.93;98514.69;5097547;28;20047;-65
2022/04/07 05:39:47;;;;;;;0.30;0.30;;;;;;;21.27;42.18;98512.72;5112890;28;20043;-64
2022/04/07 05:42:12;;;;;;;0.30;0.30;;;;;;;21.30;42.20;98517.53;5112955;28;20181;-64
2022/04/07 05:44:38;;;;;;;0.43;0.43;;;;;;;21.29;42.10;98513.16;5112832;28;20069;-65
2022/04/07 05:47:03;;;;;;;0.60;0.40;;;;;;;21.30;42.31;98525.06;5112713;28;20048;-65
2022/04/07 05:49:29;;;;;;;0.40;0.40;;;;;;;21.30;42.43;98522.28;5112671;28;20036;-65
2022/04/07 05:52:00;;;;;;;0.40;0.40;;;;;;;21.31;42.37;98521.09;5112699;28;20036;-65
2022/04/07 05:54:27;;;;;;;0.43;0.40;;;;;;;21.29;42.09;98527.06;5112587;28;20043;-64
2022/04/07 05:56:52;;;;;;;0.43;0.40;;;;;;;21.32;42.19;98533.81;5112355;28;20047;-64
2022/04/07 05:59:18;;;;;;;1.20;0.40;;;;;;;21.31;42.43;98535.00;5112430;28;20042;-63
2022/04/07 06:01:43;;;;;;;0.57;0.50;;;;;;;21.32;42.41;98529.03;5112383;28;20499;-64
2022/04/07 06:04:08;;;;;;;0.30;0.30;;;;;;;21.32;42.33;98531.03;5112386;28;20039;-63
2022/04/07 06:06:34;;;;;;;0.57;0.43;;;;;;;21.32;42.10;98531.03;5112457;28;20048;-63
2022/04/07 06:08:59;;;;;;;0.40;0.32;;;;;;;21.33;42.11;98543.72;5112308;28;20459;-63
2022/04/07 06:11:25;;;;;;;0.40;0.30;;;;;;;21.33;42.53;98538.97;5112295;28;20065;-63
2022/04/07 06:13:50;;;;;;;0.40;0.40;;;;;;;21.32;42.09;98545.72;5111993;28;20122;-64
2022/04/07 06:16:15;;;;;;;0.57;0.38;;;;;;;21.33;42.50;98557.63;5112206;28;20052;-63
2022/04/07 06:18:41;;;;;;;0.40;0.32;;;;;;;21.32;42.44;98551.28;5112222;28;20039;-63
2022/04/07 06:21:06;;;;;;;0.30;0.30;;;;;;;21.31;42.39;98560.81;5112075;28;20061;-63
2022/04/07 06:23:32;;;;;;;0.30;0.30;;;;;;;21.33;42.50;98564.00;5112118;28;20047;-63
2022/04/07 06:25:58;;;;;;;0.82;0.50;;;;;;;21.33;42.16;98561.22;5111996;28;20097;-63
2022/04/07 06:28:23;;;;;;;0.57;0.40;;;;;;;21.33;42.27;98561.22;5112115;28;20044;-63
2022/04/07 06:30:51;;;;;;;0.40;0.40;;;;;;;21.32;42.47;98556.06;5111926;28;20040;-63
2022/04/07 06:33:17;;;;;;;0.43;0.40;;;;;;;21.32;42.35;98556.84;5111972;28;20737;-63
2022/04/07 06:35:43;;;;;;;0.55;0.40;;;;;;;21.33;42.49;98565.97;5111746;28;20047;-63
2022/04/07 06:38:08;;;;;;;0.30;0.30;;;;;;;21.32;42.34;98573.53;5107736;28;20066;-63
2022/04/07 06:40:34;;;;;;;0.98;0.52;;;;;;;21.31;42.11;98577.50;5111996;28;20051;-63
2022/04/07 06:42:59;;;;;;;0.77;0.40;;;;;;;21.33;42.51;98577.91;5111893;28;20045;-63
2022/04/07 06:45:26;;;;;;;0.30;0.30;;;;;;;21.32;42.10;98567.97;5111792;28;20039;-63
2022/04/07 06:47:52;;;;;;;0.40;0.40;;;;;;;21.34;42.58;98565.56;5111743;28;20099;-64
2022/04/07 06:50:19;;;;;;;0.28;0.28;;;;;;;21.31;42.47;98566.38;5111840;28;20051;-66
2022/04/07 06:52:44;;;;;;;0.55;0.30;;;;;;;21.35;42.73;98572.72;5111959;28;20040;-64
2022/04/07 06:55:13;;;;;;;0.45;0.40;;;;;;;21.35;42.42;98572.72;5116393;28;20091;-64
2022/04/07 06:57:53;;;;;;;0.38;0.30;;;;;;;21.36;42.96;98563.22;5115763;28;20036;-60
2022/04/07 07:00:21;;;;;;;2.85;0.52;;;;;;;21.36;42.56;98557.66;5116077;28;20084;-59
2022/04/07 07:02:53;;;;;;;0.30;0.30;;;;;;;21.35;42.61;98550.47;5120121;28;20551;-60
2022/04/07 07:05:29;;;;;;;0.40;0.30;;;;;;;21.35;42.79;98556.03;5118614;28;20092;-63
2022/04/07 07:07:55;;;;;;;0.73;0.50;;;;;;;21.36;42.82;98557.66;5109854;28;20047;-60
2022/04/07 07:10:21;;;;;;;0.85;0.50;;;;;;;21.38;42.85;98552.47;5111401;28;20046;-60
2022/04/07 07:12:50;;;;;;;0.40;0.38;;;;;;;21.38;42.90;98538.56;5120211;27;20406;-59
2022/04/07 07:15:16;;;;;;;3.20;0.43;;;;;;;21.39;43.21;98531.00;5117825;27;20104;-60
2022/04/07 07:17:42;;;;;;;1.20;0.50;;;;;;;21.39;43.09;98529.03;5118684;28;20047;-60
2022/04/07 07:20:10;;;;;;;0.77;0.60;;;;;;;21.40;43.31;98540.94;5120131;27;20050;-60
2022/04/07 07:22:40;;;;;;;3.22;0.50;;;;;;;21.40;43.46;98533.38;5115442;28;20518;-62
2022/04/07 07:25:06;;;;;;;2.70;0.50;;;;;;;21.41;43.33;98531.41;5114342;27;20052;-65
2022/04/07 07:27:36;;;;;;;0.95;0.60;;;;;;;21.42;43.12;98532.97;5101370;28;20088;-65
2022/04/07 07:30:02;;;;;;;1.42;0.60;;;;;;;21.47;43.55;98526.22;5097441;28;20448;-63
2022/04/07 07:32:28;;;;;;;0.98;0.50;;;;;;;21.44;43.47;98533.41;5113743;28;20061;-62
2022/04/07 07:34:53;;;;;;;1.00;0.60;;;;;;;21.43;43.42;98538.16;5118822;27;20423;-62
2022/04/07 07:37:19;;;;;;;0.63;0.50;;;;;;;21.47;42.96;98534.56;5112766;28;20146;-61
2022/04/07 07:39:45;;;;;;;0.77;0.60;;;;;;;21.47;42.80;98535.38;5113559;28;20043;-63
2022/04/07 07:42:10;;;;;;;0.93;0.60;;;;;;;21.50;42.72;98544.88;5117335;28;20062;-64
2022/04/07 07:44:37;;;;;;;3.35;0.60;;;;;;;21.49;42.63;98548.88;5118489;28;20039;-64
2022/04/07 07:47:02;;;;;;;1.63;0.60;;;;;;;21.51;42.46;98543.72;5111704;28;20047;-64
2022/04/07 07:49:28;;;;;;;0.85;0.60;;;;;;;21.53;42.60;98544.09;5108582;28;20042;-66
2022/04/07 07:51:53;;;;;;;1.10;0.57;;;;;;;21.56;42.40;98544.09;5108870;28;20518;-64
2022/04/07 07:54:19;;;;;;;0.70;0.50;;;;;;;21.56;42.26;98534.94;5113712;28;20039;-70
2022/04/07 07:56:44;;;;;;;0.75;0.47;;;;;;;21.56;42.32;98532.16;5111112;28;20044;-65
2022/04/07 07:59:09;;;;;;;1.13;0.70;;;;;;;21.59;42.30;98546.06;5111372;28;20660;-66
2022/04/07 08:01:35;;;;;;;1.15;0.75;;;;;;;21.59;42.46;98539.72;5113694;28;20575;-67
2022/04/07 08:04:00;;;;;;;1.35;0.60;;;;;;;21.62;42.59;98547.25;5112358;28;20035;-64
2022/04/07 08:06:26;;;;;;;1.23;0.57;;;;;;;21.61;42.41;98538.13;5117684;28;20048;-69
2022/04/07 08:08:51;;;;;;;1.45;0.63;;;;;;;21.62;42.46;98542.47;5117171;28;20043;-64
2022/04/07 08:11:17;;;;;;;1.27;0.73;;;;;;;21.65;42.07;98540.91;5118170;28;20051;-66
2022/04/07 08:13:42;;;;;;;1.08;0.60;;;;;;;21.65;42.16;98540.91;5109401;28;20031;-63
2022/04/07 08:16:10;;;;;;;1.15;0.70;;;;;;;21.67;42.08;98552.41;5115031;28;20112;-63
2022/04/07 08:18:35;;;;;;;1.00;0.63;;;;;;;21.67;42.43;98546.84;5118573;28;20056;-62
2022/04/07 08:21:01;;;;;;;2.28;0.70;;;;;;;21.70;42.31;98548.81;5114323;28;20058;-63
2022/04/07 08:23:26;;;;;;;2.25;0.70;;;;;;;21.70;42.39;98552.41;5110446;28;20039;-66
2022/04/07 08:25:52;;;;;;;0.88;0.57;;;;;;;21.71;42.73;98555.97;5120252;27;20039;-65
2022/04/07 08:28:17;;;;;;;1.50;0.50;;;;;;;21.71;42.49;98562.31;5114300;27;20104;-65
2022/04/07 08:30:42;;;;;;;1.05;0.60;;;;;;;21.71;42.71;98564.31;5109240;28;20048;-65
2022/04/07 08:33:08;;;;;;;1.80;0.60;;;;;;;21.71;42.65;98567.09;5111226;28;20044;-65
2022/04/07 08:35:33;;;;;;;3.15;0.80;;;;;;;21.66;42.74;98581.44;5102746;28;20055;-64
2022/04/07 08:37:59;;;;;;;1.05;0.70;;;;;;;21.66;42.82;98578.66;5115764;27;20097;-64
2022/04/07 08:40:25;;;;;;;1.13;0.65;;;;;;;21.68;42.70;98556.78;5114620;28;20053;-64
2022/04/07 08:42:50;;;;;;;1.25;0.73;;;;;;;21.68;42.88;98554.00;5120328;28;20051;-62
2022/04/07 08:45:16;;;;;;;0.98;0.60;;;;;;;21.64;42.80;98547.63;5115848;28;20500;-64
2022/04/07 08:47:46;;;;;;;2.00;0.60;;;;;;;21.61;43.06;98540.91;5112161;28;20412;-64
2022/04/07 08:50:13;;;;;;;0.68;0.50;;;;;;;21.60;43.08;98561.56;5113800;28;20084;-62
2022/04/07 08:52:39;;;;;;;1.23;0.60;;;;;;;21.59;43.22;98565.56;5120268;28;20051;-61
2022/04/07 08:55:06;;;;;;;2.20;0.65;;;;;;;21.64;43.36;98576.25;5115258;28;20042;-60
2022/04/07 08:57:32;;;;;;;1.85;0.50;;;;;;;21.68;43.57;98565.94;5115643;28;20044;-61
2022/04/07 08:59:57;;;;;;;1.20;0.70;;;;;;;21.74;43.27;98566.31;5107630;28;20036;-58
2022/04/07 09:02:23;;;;;;;1.85;0.60;;;;;;;21.74;43.29;98569.09;5108264;28;20036;-59
2022/04/07 09:04:56;;;;;;;1.10;0.60;;;;;;;21.73;43.37;98556.38;5117403;28;20444;-60
2022/04/07 09:07:32;;;;;;;3.13;0.60;;;;;;;21.76;43.51;98561.13;5096932;28;20082;-60
2022/04/07 09:10:02;;;;;;;1.15;0.60;;;;;;;21.80;43.29;98561.13;5116138;28;20051;-61
2022/04/07 09:12:28;;;;;;;2.17;0.63;;;;;;;21.80;43.16;98563.94;5114813;28;20050;-61
2022/04/07 09:14:58;;;;;;;1.70;0.60;;;;;;;21.79;43.38;98562.31;5099964;28;20048;-61
2022/04/07 09:17:25;;;;;;;1.63;0.68;;;;;;;21.80;43.20;98556.38;5115323;28;20051;-60
2022/04/07 09:19:51;;;;;;;2.10;0.60;;;;;;;21.79;43.32;98559.53;5110658;28;22059;-60
2022/04/07 09:22:17;;;;;;;1.02;0.50;;;;;;;21.76;43.62;98565.91;5113505;28;20036;-60
2022/04/07 09:24:43;;;;;;;3.42;0.70;;;;;;;21.73;43.51;98561.94;5113822;28;20039;-60
2022/04/07 09:27:12;;;;;;;1.67;0.60;;;;;;;21.69;43.72;98556.38;5114440;28;20039;-64
2022/04/07 09:29:43;;;;;;;2.83;0.55;;;;;;;21.67;43.84;98542.06;5117824;28;20139;-64
2022/04/07 09:32:21;;;;;;;0.98;0.55;;;;;;;21.69;43.87;98552.81;5115480;28;20043;-64
2022/04/07 09:34:55;;;;;;;2.60;0.60;;;;;;;21.70;43.72;98554.38;5111339;28;20075;-63
2022/04/07 09:37:22;;;;;;;2.78;0.43;;;;;;;21.74;43.73;98557.19;5110432;28;20040;-63
2022/04/07 09:40:09;;;;;;;1.10;0.50;;;;;;;21.76;43.54;98560.34;5106884;28;20103;-63
2022/04/07 09:42:36;;;;;;;0.70;0.50;;;;;;;21.76;43.67;98560.34;5113011;28;20058;-65
2022/04/07 09:45:03;;;;;;;2.60;0.60;;;;;;;21.75;43.81;98556.78;5116485;28;20109;-65
2022/04/07 09:47:52;;;;;;;3.47;0.50;;;;;;;21.75;43.52;98551.19;5115771;28;20043;-65
2022/04/07 09:50:29;;;;;;;1.75;0.60;;;;;;;21.75;43.94;98558.75;5113477;28;20057;-64
2022/04/07 09:53:04;;;;;;;3.13;0.60;;;;;;;21.76;43.69;98563.91;5115053;28;20492;-65
2022/04/07 09:55:43;;;;;;;4.55;0.52;;;;;;;21.76;43.67;98563.91;5092217;27;20051;-63
2022/04/07 09:58:12;;;;;;;1.25;0.40;;;;;;;21.76;44.40;98557.56;5092056;28;20449;-63
2022/04/07 10:00:38;;;;;;;3.03;0.47;;;;;;;21.77;44.42;98559.94;5113926;28;20746;-62
2022/04/07 10:03:04;;;;;;;0.35;0.30;;;;;;;21.80;44.41;98555.56;5116076;28;20049;-62
2022/04/07 10:05:31;;;;;;;1.85;0.50;;;;;;;21.82;44.10;98555.97;5124484;28;20729;-62
2022/04/07 10:07:57;;;;;;;1.50;0.60;;;;;;;21.80;44.25;98558.34;5120954;28;20039;-63
2022/04/07 10:10:23;;;;;;;1.73;0.40;;;;;;;21.80;44.52;98561.94;5114250;28;20062;-62
2022/04/07 10:12:49;;;;;;;0.77;0.40;;;;;;;21.82;44.33;98572.66;5114778;28;20047;-62
2022/04/07 10:15:18;;;;;;;1.00;0.43;;;;;;;21.82;44.14;98581.81;5114488;28;20040;-63
2022/04/07 10:17:45;;;;;;;0.90;0.50;;;;;;;21.81;44.41;98574.66;5114819;28;20046;-62
2022/04/07 10:20:16;;;;;;;1.08;0.50;;;;;;;21.83;44.25;98585.38;5116597;28;20047;-61
2022/04/07 10:23:00;;;;;;;3.53;0.55;;;;;;;21.82;44.19;98581.00;5116740;28;20043;-62
2022/04/07 10:25:27;;;;;;;0.30;0.30;;;;;;;21.82;44.30;98584.59;5122228;28;20056;-63
2022/04/07 10:27:57;;;;;;;2.65;0.40;;;;;;;21.85;44.02;98589.34;5112370;28;20506;-63
2022/04/07 10:30:22;;;;;;;2.33;0.55;;;;;;;21.82;44.21;98590.16;5115908;28;20498;-62
2022/04/07 10:32:52;;;;;;;4.20;0.45;;;;;;;21.79;44.37;98588.19;5114617;28;20058;-63
2022/04/07 10:35:27;;;;;;;0.60;0.40;;;;;;;21.79;44.45;98584.56;5119510;28;20491;-63
2022/04/07 10:37:53;;;;;;;0.88;0.47;;;;;;;21.77;44.21;98586.97;5112741;28;20092;-63
2022/04/07 10:40:38;;;;;;;2.38;0.38;;;;;;;21.76;44.28;98588.97;5117159;28;20062;-63
2022/04/07 10:43:10;;;;;;;0.25;0.25;;;;;;;21.75;44.55;98589.38;5111205;28;20621;-63
2022/04/07 10:45:43;;;;;;;0.65;0.40;;;;;;;21.72;44.62;98596.56;5103885;28;20040;-64
2022/04/07 10:48:29;;;;;;;0.63;0.30;;;;;;;21.72;44.44;98590.97;5104044;27;20039;-64
2022/04/07 10:51:04;;;;;;;0.40;0.38;;;;;;;21.69;44.54;98591.75;5104149;28;20051;-63
2022/04/07 10:53:34;;;;;;;0.45;0.30;;;;;;;21.67;44.61;98583.81;5105242;27;20392;-63
2022/04/07 10:56:31;;;;;;;1.70;0.40;;;;;;;21.66;44.81;98587.00;5103971;28;20039;-63
2022/04/07 10:59:10;;;;;;;0.55;0.35;;;;;;;21.64;44.56;98583.81;5101968;27;20298;-63
2022/04/07 11:01:39;;;;;;;0.35;0.30;;;;;;;21.59;44.36;98576.69;5103148;27;20057;-64
2022/04/07 11:04:17;;;;;;;13.90;8.85;;;;;;;21.54;45.13;98581.84;5100696;28;20043;-63
2022/04/07 11:07:04;;;;;;;14.30;9.50;;;;;;;21.51;45.55;98580.69;5101482;28;20051;-63
2022/04/07 11:09:42;;;;;;;10.77;6.00;;;;;;;21.51;45.31;98568.75;5099219;27;20500;-63
2022/04/07 11:12:10;;;;;;;9.93;4.60;;;;;;;21.52;45.08;98581.47;5102529;28;20138;-62
2022/04/07 11:14:35;;;;;;;7.00;3.63;;;;;;;21.52;45.05;98578.69;5104094;27;20446;-63
2022/04/07 11:17:05;;;;;;;6.00;3.67;;;;;;;21.53;45.13;98583.06;5103007;27;20058;-62
2022/04/07 11:19:39;;;;;;;5.93;2.97;;;;;;;21.53;45.08;98586.63;5102274;28;20043;-63
2022/04/07 11:22:09;;;;;;;4.53;2.83;;;;;;;21.52;45.13;98578.69;5103876;28;20404;-62
2022/04/07 11:24:42;;;;;;;6.35;2.72;;;;;;;21.53;45.04;98577.50;5101412;27;20050;-63
2022/04/07 11:27:36;;;;;;;3.78;2.17;;;;;;;21.53;45.29;98588.63;5100236;28;21336;-62
2022/04/07 11:30:06;;;;;;;4.30;2.60;;;;;;;21.53;45.39;98583.06;5099028;28;20638;-65
2022/04/07 11:32:31;;;;;;;6.57;2.25;;;;;;;21.56;44.95;98585.03;5103678;27;20453;-64
2022/04/07 11:35:00;;;;;;;4.63;2.03;;;;;;;21.58;44.92;98585.44;5102556;27;20648;-64